Time;durP1;ratioP1;P1;durP2;ratioP2;P2;SDS_P1;SDS_P2;PMS_P1;PMS_P2;Temp;Humidity;BMP_temperature;BMP_pressure;BME280_temperature;BME280_humidity;BME280_pressure;Samples;Min_cycle;Max_cycle;Signal;HPM_P1;HPM_P2
2021/10/28 00:14:14;;;;;;;;;;;10.60;99.90;;;;;;5029827;28;19917;-62
2021/10/28 00:16:42;;;;;;;;;;;10.60;99.90;;;;;;5039487;28;20008;-62
2021/10/28 00:19:07;;;;;;;;;;;10.60;99.90;;;;;;5049655;28;20409;-62
2021/10/28 00:21:37;;;;;;;;;;;10.60;99.90;;;;;;5049519;28;19959;-62
2021/10/28 00:24:04;;;;;;;;;;;10.60;99.90;;;;;;5049457;28;20003;-62
2021/10/28 00:26:31;;;;;;;;;;;10.60;99.90;;;;;;5049352;28;19955;-62
2021/10/28 00:28:59;;;;;;;;;;;10.50;99.90;;;;;;5049493;28;19917;-62
2021/10/28 00:31:29;;;;;;;;;;;10.50;99.90;;;;;;5055590;28;20352;-62
2021/10/28 00:33:55;;;;;;;;;;;10.50;99.90;;;;;;5092046;28;19941;-62
2021/10/28 00:36:21;;;;;;;;;;;10.50;99.90;;;;;;5093976;28;19948;-62
2021/10/28 00:38:50;;;;;;;;;;;10.50;99.90;;;;;;5095013;28;19919;-63
2021/10/28 00:41:18;;;;;;;;;;;10.50;99.90;;;;;;5095248;28;19916;-62
2021/10/28 00:43:52;;;;;;;;;;;10.50;99.90;;;;;;5095163;28;19963;-62
2021/10/28 00:46:18;;;;;;;;;;;10.40;99.90;;;;;;5094987;28;19967;-62
2021/10/28 00:48:45;;;;;;;;;;;10.40;99.90;;;;;;5095233;28;19916;-62
2021/10/28 00:51:10;;;;;;;;;;;10.40;99.90;;;;;;5093080;28;19920;-63
2021/10/28 00:53:36;;;;;;;;;;;10.40;99.90;;;;;;5094879;28;19916;-62
2021/10/28 00:56:03;;;;;;;;;;;10.40;99.90;;;;;;5095037;28;19927;-62
2021/10/28 00:58:33;;;;;;;;;;;10.30;99.90;;;;;;5094906;28;19920;-63
2021/10/28 01:00:59;;;;;;;;;;;10.30;99.90;;;;;;5094970;28;19916;-62
2021/10/28 01:03:26;;;;;;;;;;;10.30;99.90;;;;;;5094819;28;19963;-62
2021/10/28 01:05:52;;;;;;;;;;;10.30;99.90;;;;;;5094796;28;19916;-62
2021/10/28 01:08:17;;;;;;;;;;;10.40;99.90;;;;;;5094704;28;19927;-62
2021/10/28 01:10:44;;;;;;;;;;;10.30;99.90;;;;;;5094898;28;20031;-63
2021/10/28 01:13:10;;;;;;;;;;;10.20;99.90;;;;;;5094732;28;19935;-62
2021/10/28 01:15:36;;;;;;;;;;;10.20;99.90;;;;;;5095107;28;20331;-62
2021/10/28 01:18:06;;;;;;;;;;;10.20;99.90;;;;;;5094747;28;19966;-62
2021/10/28 01:20:31;;;;;;;;;;;10.10;99.90;;;;;;5094790;28;19926;-62
2021/10/28 01:22:57;;;;;;;;;;;10.20;99.90;;;;;;5094692;28;20340;-62
2021/10/28 01:25:22;;;;;;;;;;;10.10;99.90;;;;;;5094379;28;19920;-62
2021/10/28 01:27:48;;;;;;;;;;;10.10;99.90;;;;;;5094207;28;19916;-62
2021/10/28 01:30:13;;;;;;;;;;;10.10;99.90;;;;;;5094176;28;19916;-62
2021/10/28 01:32:39;;;;;;;;;;;10.10;99.90;;;;;;5094216;28;19916;-62
2021/10/28 01:35:05;;;;;;;;;;;10.00;99.90;;;;;;5093993;28;19923;-63
2021/10/28 01:37:30;;;;;;;;;;;10.10;99.90;;;;;;5094003;28;19920;-62
2021/10/28 01:39:56;;;;;;;;;;;10.10;99.90;;;;;;5093837;28;19920;-62
2021/10/28 01:42:21;;;;;;;;;;;10.00;99.90;;;;;;5093919;28;19922;-62
2021/10/28 01:44:47;;;;;;;;;;;10.10;99.90;;;;;;5093768;28;19935;-62
2021/10/28 01:47:13;;;;;;;;;;;10.10;99.90;;;;;;5093962;28;20011;-62
2021/10/28 01:49:39;;;;;;;;;;;10.10;99.90;;;;;;5093936;28;19923;-62
2021/10/28 01:52:04;;;;;;;;;;;10.10;99.90;;;;;;5093841;28;19916;-62
2021/10/28 01:54:30;;;;;;;;;;;10.10;99.90;;;;;;5093758;28;19920;-62
2021/10/28 01:56:56;;;;;;;;;;;10.10;99.90;;;;;;5075430;28;19959;-63
2021/10/28 01:59:21;;;;;;;;;;;10.00;99.90;;;;;;5094000;28;20046;-62
2021/10/28 02:01:47;;;;;;;;;;;10.00;99.90;;;;;;5093740;28;19916;-62
2021/10/28 02:04:15;;;;;;;;;;;10.00;99.90;;;;;;5093619;28;19920;-62
2021/10/28 02:06:41;;;;;;;;;;;10.00;99.90;;;;;;5093506;28;19959;-62
2021/10/28 02:09:07;;;;;;;;;;;10.00;99.90;;;;;;5093457;28;19970;-62
2021/10/28 02:11:33;;;;;;;;;;;10.00;99.90;;;;;;5093333;28;19916;-62
2021/10/28 02:13:59;;;;;;;;;;;10.00;99.90;;;;;;5093517;28;19969;-62
2021/10/28 02:16:28;;;;;;;;;;;10.00;99.90;;;;;;5093453;28;19915;-62
2021/10/28 02:18:54;;;;;;;;;;;9.90;99.90;;;;;;5093394;28;20335;-62
2021/10/28 02:21:20;;;;;;;;;;;9.90;99.90;;;;;;5093186;28;19916;-62
2021/10/28 02:23:46;;;;;;;;;;;9.90;99.90;;;;;;5093115;28;19920;-62
2021/10/28 02:26:11;;;;;;;;;;;9.90;99.90;;;;;;5108932;28;19945;-62
2021/10/28 02:28:37;;;;;;;;;;;9.90;99.90;;;;;;5093301;28;19974;-62
2021/10/28 02:31:02;;;;;;;;;;;9.90;99.90;;;;;;5093250;28;19959;-62
2021/10/28 02:33:28;;;;;;;;;;;9.90;99.90;;;;;;5093014;28;20407;-62
2021/10/28 02:35:54;;;;;;;;;;;9.90;99.90;;;;;;5093106;28;20002;-62
2021/10/28 02:38:19;;;;;;;;;;;9.90;99.90;;;;;;5093178;28;20396;-62
2021/10/28 02:40:45;;;;;;;;;;;9.90;99.90;;;;;;5092900;28;19915;-62
2021/10/28 02:43:11;;;;;;;;;;;9.90;99.90;;;;;;5092659;28;19924;-62
2021/10/28 02:45:37;;;;;;;;;;;9.90;99.90;;;;;;5092750;28;19916;-62
2021/10/28 02:48:02;;;;;;;;;;;9.90;99.90;;;;;;5092819;28;19982;-62
2021/10/28 02:50:28;;;;;;;;;;;9.90;99.90;;;;;;5093028;28;20260;-62
2021/10/28 02:52:53;;;;;;;;;;;9.80;99.90;;;;;;5092715;28;20289;-62
2021/10/28 02:55:20;;;;;;;;;;;9.80;99.90;;;;;;5092588;28;20281;-62
2021/10/28 02:57:46;;;;;;;;;;;9.90;99.90;;;;;;5092300;28;20059;-62
2021/10/28 03:00:12;;;;;;;;;;;9.90;99.90;;;;;;5074348;28;20339;-62
2021/10/28 03:02:38;;;;;;;;;;;9.80;99.90;;;;;;5092401;28;19923;-62
2021/10/28 03:05:05;;;;;;;;;;;9.80;99.90;;;;;;5092441;28;19920;-62
2021/10/28 03:07:32;;;;;;;;;;;9.80;99.90;;;;;;5092305;28;20413;-62
2021/10/28 03:09:57;;;;;;;;;;;9.80;99.90;;;;;;5092330;28;19915;-62
2021/10/28 03:12:23;;;;;;;;;;;9.80;99.90;;;;;;5092663;28;20113;-62
2021/10/28 03:14:57;;;;;;;;;;;9.80;99.90;;;;;;5092488;28;20346;-62
2021/10/28 03:25:42;;;;;;;;;;;9.80;99.90;;;;;;5092329;28;19920;-62
2021/10/28 03:28:26;;;;;;;;;;;9.80;99.90;;;;;;5092277;28;19916;-62
2021/10/28 03:30:52;;;;;;;;;;;9.80;99.90;;;;;;5092142;28;19916;-63
2021/10/28 03:33:21;;;;;;;;;;;9.80;99.90;;;;;;5091986;28;20416;-62
2021/10/28 03:35:47;;;;;;;;;;;9.80;99.90;;;;;;5092298;28;19978;-63
2021/10/28 03:38:38;;;;;;;;;;;9.80;99.90;;;;;;5092017;28;19916;-62
2021/10/28 03:41:39;;;;;;;;;;;9.80;99.90;;;;;;5092061;28;19916;-62
2021/10/28 03:44:12;;;;;;;;;;;9.80;99.90;;;;;;5091858;28;19946;-62
2021/10/28 03:53:13;;;;;;;;;;;9.80;99.90;;;;;;5029928;28;20394;-62
2021/10/28 04:06:31;;;;;;;;;;;9.70;99.90;;;;;;5029536;28;20429;-62
2021/10/28 04:16:22;;;;;;;;;;;9.70;99.90;;;;;;5029138;28;19979;-62
2021/10/28 04:17:17;;;;;;;;;;;9.70;99.90;;;;;;5033453;28;20444;-62
2021/10/28 04:30:21;;;;;;;;;;;9.70;99.90;;;;;;5095265;28;19916;-62
2021/10/28 04:32:47;;;;;;;;;;;9.70;99.90;;;;;;5095297;28;19915;-62
2021/10/28 04:35:13;;;;;;;;;;;9.70;99.90;;;;;;5095234;28;20370;-62
2021/10/28 04:37:39;;;;;;;;;;;9.70;99.90;;;;;;5095141;28;19969;-62
2021/10/28 04:40:05;;;;;;;;;;;9.70;99.90;;;;;;5095014;28;19927;-61
2021/10/28 04:42:31;;;;;;;;;;;9.70;99.90;;;;;;5095196;28;19916;-62
2021/10/28 04:44:56;;;;;;;;;;;9.60;99.90;;;;;;5095103;28;20319;-62
2021/10/28 04:47:22;;;;;;;;;;;9.60;99.90;;;;;;5095385;28;19975;-61
2021/10/28 04:49:47;;;;;;;;;;;9.60;99.90;;;;;;5095206;28;19916;-62
2021/10/28 04:52:13;;;;;;;;;;;9.60;99.90;;;;;;5094908;28;19986;-62
2021/10/28 04:54:39;;;;;;;;;;;9.60;99.90;;;;;;5095108;28;20006;-62
2021/10/28 04:57:05;;;;;;;;;;;9.60;99.90;;;;;;5094764;28;20316;-61
2021/10/28 04:59:31;;;;;;;;;;;9.60;99.90;;;;;;5094774;28;19920;-62
2021/10/28 05:01:57;;;;;;;;;;;9.60;99.90;;;;;;5094825;28;19916;-62
2021/10/28 05:04:23;;;;;;;;;;;9.60;99.90;;;;;;5094553;28;20385;-62
2021/10/28 05:06:49;;;;;;;;;;;9.60;99.90;;;;;;5094471;28;19970;-62
2021/10/28 05:09:18;;;;;;;;;;;9.60;99.90;;;;;;5094567;28;19916;-62
2021/10/28 05:11:46;;;;;;;;;;;9.60;99.90;;;;;;5094717;28;19951;-62
2021/10/28 05:14:12;;;;;;;;;;;9.50;99.90;;;;;;5094553;28;20289;-62
2021/10/28 05:16:37;;;;;;;;;;;9.50;99.90;;;;;;5094471;28;19916;-62
2021/10/28 05:19:03;;;;;;;;;;;9.50;99.90;;;;;;5094320;28;19995;-62
2021/10/28 05:21:30;;;;;;;;;;;9.50;99.90;;;;;;5093884;28;19966;-62
2021/10/28 05:23:56;;;;;;;;;;;9.50;99.90;;;;;;5094363;28;19920;-62
2021/10/28 05:26:21;;;;;;;;;;;9.50;99.90;;;;;;5094445;28;19923;-62
2021/10/28 05:28:48;;;;;;;;;;;9.50;99.90;;;;;;5094351;28;19916;-62
2021/10/28 05:31:13;;;;;;;;;;;9.50;99.90;;;;;;5094192;28;19916;-62
2021/10/28 05:33:39;;;;;;;;;;;9.40;99.90;;;;;;5094094;28;20293;-62
2021/10/28 05:36:05;;;;;;;;;;;9.50;99.90;;;;;;5094264;28;20274;-62
2021/10/28 05:38:30;;;;;;;;;;;9.40;99.90;;;;;;5094106;28;19961;-61
2021/10/28 05:40:56;;;;;;;;;;;9.40;99.90;;;;;;5094238;28;20403;-62
2021/10/28 05:43:21;;;;;;;;;;;9.40;99.90;;;;;;5094158;28;19947;-62
2021/10/28 05:45:49;;;;;;;;;;;9.40;99.90;;;;;;5093882;28;19916;-62
2021/10/28 05:48:14;;;;;;;;;;;9.40;99.90;;;;;;5093867;28;20005;-62
2021/10/28 05:50:41;;;;;;;;;;;9.40;99.90;;;;;;5093905;28;20032;-62
2021/10/28 05:53:08;;;;;;;;;;;9.30;99.90;;;;;;5093938;28;19916;-62
2021/10/28 05:55:34;;;;;;;;;;;9.40;99.90;;;;;;5093690;28;19955;-62
2021/10/28 05:57:59;;;;;;;;;;;9.30;99.90;;;;;;5093498;28;20126;-61
2021/10/28 06:00:25;;;;;;;;;;;9.30;99.90;;;;;;5093690;28;19922;-62
2021/10/28 06:02:51;;;;;;;;;;;9.30;99.90;;;;;;5093537;28;19916;-62
2021/10/28 06:05:17;;;;;;;;;;;9.30;99.90;;;;;;5075283;28;20045;-61
2021/10/28 06:07:43;;;;;;;;;;;9.30;99.90;;;;;;5093442;28;19967;-62
2021/10/28 06:10:09;;;;;;;;;;;9.30;99.90;;;;;;5093745;28;19916;-62
2021/10/28 06:12:38;;;;;;;;;;;9.30;99.90;;;;;;5092270;28;19920;-62
2021/10/28 06:15:04;;;;;;;;;;;9.20;99.90;;;;;;5093398;28;19963;-62
2021/10/28 06:17:33;;;;;;;;;;;9.30;99.90;;;;;;5093213;28;19920;-62
2021/10/28 06:19:59;;;;;;;;;;;9.20;99.90;;;;;;5093356;28;20010;-62
2021/10/28 06:22:26;;;;;;;;;;;9.30;99.90;;;;;;5093343;28;19916;-62
2021/10/28 06:24:52;;;;;;;;;;;9.20;99.90;;;;;;5093214;28;19971;-62
2021/10/28 06:27:17;;;;;;;;;;;9.20;99.90;;;;;;5093162;28;19951;-60
2021/10/28 06:29:43;;;;;;;;;;;9.20;99.90;;;;;;5093116;28;20011;-59
2021/10/28 06:32:08;;;;;;;;;;;9.30;99.90;;;;;;5092823;28;19916;-60
2021/10/28 06:34:39;;;;;;;;;;;9.30;99.90;;;;;;5092431;28;19968;-60
2021/10/28 06:37:05;;;;;;;;;;;9.30;99.90;;;;;;5092983;28;19922;-61
2021/10/28 06:39:31;;;;;;;;;;;9.20;99.90;;;;;;5092821;28;19926;-60
2021/10/28 06:41:57;;;;;;;;;;;9.20;99.90;;;;;;5092739;28;20358;-60
2021/10/28 06:44:23;;;;;;;;;;;9.30;99.90;;;;;;5092655;28;19971;-60
2021/10/28 06:46:49;;;;;;;;;;;9.20;99.90;;;;;;5093023;28;19965;-60
2021/10/28 06:49:17;;;;;;;;;;;9.20;99.90;;;;;;5092876;28;19995;-60
2021/10/28 06:51:43;;;;;;;;;;;9.40;99.90;;;;;;5092826;28;19916;-61
2021/10/28 07:02:32;;;;;;;;;;;9.30;99.90;;;;;;5092635;28;19915;-61
2021/10/28 07:04:58;;;;;;;;;;;9.30;99.90;;;;;;5092505;28;19978;-61
2021/10/28 07:07:29;;;;;;;;;;;9.30;99.90;;;;;;5092374;28;19969;-60
2021/10/28 07:10:05;;;;;;;;;;;9.40;99.90;;;;;;5092672;28;19916;-61
2021/10/28 07:15:06;;;;;;;;;;;9.90;99.90;;;;;;5092485;28;19920;-59
2021/10/28 07:17:37;;;;;;;;;;;10.00;99.90;;;;;;5090726;28;19927;-59
2021/10/28 08:21:55;;;;;;;;;;;13.40;99.90;;;;;;4993816;28;20397;-60
2021/10/28 08:29:35;;;;;;;;;;;14.10;99.90;;;;;;4993604;28;20372;-61
2021/10/28 08:32:03;;;;;;;;;;;14.20;99.90;;;;;;4993678;28;20368;-61
2021/10/28 08:34:30;;;;;;;;;;;14.40;99.90;;;;;;5003139;28;19940;-61
2021/10/28 08:37:05;;;;;;;;;;;14.60;99.90;;;;;;5013147;28;19917;-60
2021/10/28 08:39:30;;;;;;;;;;;14.60;99.90;;;;;;5044710;28;19924;-59
2021/10/28 08:41:58;;;;;;;;;;;14.70;99.90;;;;;;5052757;28;20297;-61
2021/10/28 08:44:24;;;;;;;;;;;14.60;99.90;;;;;;5052657;28;20436;-60
2021/10/28 08:46:51;;;;;;;;;;;14.70;99.90;;;;;;5052775;28;19995;-61
2021/10/28 08:49:19;;;;;;;;;;;14.50;99.90;;;;;;5052664;28;19920;-61
2021/10/28 08:51:57;;;;;;;;;;;14.50;99.90;;;;;;5052563;28;19916;-61
2021/10/28 08:59:56;;;;;;;;;;;14.00;99.90;;;;;;5094910;28;19923;-61
2021/10/28 09:24:29;;;;;;;;;;;13.60;99.90;;;;;;5094364;28;19920;-60
2021/10/28 09:27:04;;;;;;;;;;;13.60;99.90;;;;;;5094352;28;19922;-60
2021/10/28 09:48:33;;;;;;;;;;;13.80;99.90;;;;;;5051533;28;19920;-60
2021/10/28 09:51:01;;;;;;;;;;;13.80;99.90;;;;;;5051551;28;19963;-60
2021/10/28 09:58:39;;;;;;;;;;;14.00;99.90;;;;;;5051327;28;19956;-60
2021/10/28 10:01:07;;;;;;;;;;;14.00;99.90;;;;;;5051354;28;19967;-60
2021/10/28 10:03:37;;;;;;;;;;;14.10;99.90;;;;;;5051157;28;19928;-61
2021/10/28 10:06:04;;;;;;;;;;;14.20;99.90;;;;;;5051192;28;19920;-59
2021/10/28 10:08:34;;;;;;;;;;;14.20;99.90;;;;;;5051221;28;19920;-61
2021/10/28 10:10:59;;;;;;;;;;;14.20;99.90;;;;;;5051123;28;19925;-60
2021/10/28 10:13:25;;;;;;;;;;;14.20;99.90;;;;;;5051056;28;19966;-60
2021/10/28 10:15:52;;;;;;;;;;;14.20;99.90;;;;;;5051083;28;20019;-60
2021/10/28 10:18:19;;;;;;;;;;;14.30;99.90;;;;;;5050819;28;19920;-60
2021/10/28 10:20:50;;;;;;;;;;;14.30;99.90;;;;;;5051046;28;19917;-60
2021/10/28 12:45:23;;;;;;;;;;;17.40;99.90;;;;;;5052956;28;19924;-60
2021/10/28 12:48:53;;;;;;;;;;;17.30;99.90;;;;;;5052693;28;20402;-62
2021/10/28 13:02:27;;;;;;;;;;;17.30;99.90;;;;;;5032297;28;19917;-60
2021/10/28 13:35:19;;;;;;;;;;;17.40;99.90;;;;;;5094324;28;19955;-61
2021/10/28 13:48:28;;;;;;;;;;;17.30;99.90;;;;;;5075867;28;20266;-61
2021/10/28 15:27:59;;;;;;;;;;;15.60;99.90;;;;;;5049855;28;19921;-61
2021/10/28 15:30:55;;;;;;;;;;;15.50;99.90;;;;;;5049890;28;19923;-62
2021/10/28 15:36:24;;;;;;;;;;;15.30;99.90;;;;;;5010353;28;19952;-62
2021/10/28 15:39:01;;;;;;;;;;;15.40;99.90;;;;;;5010176;28;19917;-62
2021/10/28 15:57:25;;;;;;;;;;;15.00;99.90;;;;;;4996139;28;19921;-61
2021/10/28 16:21:53;;;;;;;;;;;14.50;99.90;;;;;;4993873;28;19917;-61
2021/10/28 16:24:19;;;;;;;;;;;14.40;99.90;;;;;;4993773;28;19953;-61
2021/10/28 16:26:45;;;;;;;;;;;14.40;99.90;;;;;;4993916;28;19924;-61
2021/10/28 16:29:12;;;;;;;;;;;14.40;99.90;;;;;;4993832;28;20311;-61
2021/10/28 16:31:41;;;;;;;;;;;14.30;99.90;;;;;;4993721;28;19924;-61
2021/10/28 16:34:07;;;;;;;;;;;14.30;99.90;;;;;;4993633;28;20408;-61
2021/10/28 16:36:32;;;;;;;;;;;14.30;99.90;;;;;;4993590;28;19965;-61
2021/10/28 16:39:03;;;;;;;;;;;14.10;99.90;;;;;;4993491;28;20012;-61
2021/10/28 16:41:29;;;;;;;;;;;14.20;99.90;;;;;;4993636;28;19917;-61
2021/10/28 16:43:54;;;;;;;;;;;14.10;99.90;;;;;;4993353;28;19921;-61
2021/10/28 16:46:20;;;;;;;;;;;14.00;99.90;;;;;;4993483;28;19950;-61
2021/10/28 16:48:45;;;;;;;;;;;13.90;99.90;;;;;;4981217;28;20431;-61
2021/10/28 16:51:11;;;;;;;;;;;13.90;99.90;;;;;;5095415;28;19920;-61
2021/10/28 16:53:37;;;;;;;;;;;13.90;99.90;;;;;;5095433;28;20415;-61
2021/10/28 16:56:03;;;;;;;;;;;13.80;99.90;;;;;;5095229;28;19916;-61
2021/10/28 16:58:29;;;;;;;;;;;13.80;99.90;;;;;;5094996;28;19969;-61
2021/10/28 17:00:55;;;;;;;;;;;13.70;99.90;;;;;;5094934;28;19995;-61
2021/10/28 17:03:20;;;;;;;;;;;13.60;99.90;;;;;;5094838;28;19966;-62
2021/10/28 17:05:47;;;;;;;;;;;13.60;99.90;;;;;;5094895;28;19927;-61
2021/10/28 17:08:12;;;;;;;;;;;13.60;99.90;;;;;;5094889;28;19923;-61
2021/10/28 17:10:38;;;;;;;;;;;13.60;99.90;;;;;;5094765;28;19916;-61
2021/10/28 17:13:05;;;;;;;;;;;13.70;99.90;;;;;;5094708;28;20289;-60
2021/10/28 17:15:30;;;;;;;;;;;13.50;99.90;;;;;;5094652;28;19927;-60
2021/10/28 17:17:56;;;;;;;;;;;13.50;99.90;;;;;;5093866;28;19916;-61
2021/10/28 17:20:22;;;;;;;;;;;13.50;99.90;;;;;;5094737;28;19916;-61
2021/10/28 17:22:48;;;;;;;;;;;13.50;99.90;;;;;;5094605;28;20362;-61
2021/10/28 17:25:19;;;;;;;;;;;13.40;99.90;;;;;;5094420;28;19920;-61
2021/10/28 17:27:45;;;;;;;;;;;13.40;99.90;;;;;;5094369;28;20004;-61
2021/10/28 17:30:12;;;;;;;;;;;13.40;99.90;;;;;;5094193;28;19920;-62
2021/10/28 17:32:40;;;;;;;;;;;13.40;99.90;;;;;;5094097;28;20381;-62
2021/10/28 17:35:06;;;;;;;;;;;13.40;99.90;;;;;;5094360;28;19916;-62
2021/10/28 17:37:31;;;;;;;;;;;13.30;99.90;;;;;;5094167;28;19916;-62
2021/10/28 17:39:57;;;;;;;;;;;13.30;99.90;;;;;;5109499;28;19966;-62
2021/10/28 17:42:22;;;;;;;;;;;13.30;99.90;;;;;;5093923;28;19916;-62
2021/10/28 17:44:57;;;;;;;;;;;13.20;99.90;;;;;;5093833;28;19920;-62
2021/10/28 17:47:23;;;;;;;;;;;13.20;99.90;;;;;;5093995;28;19920;-62
2021/10/28 17:49:49;;;;;;;;;;;13.10;99.90;;;;;;5076059;28;19920;-62
2021/10/28 17:52:15;;;;;;;;;;;13.10;99.90;;;;;;5093933;28;19916;-62
2021/10/28 17:54:41;;;;;;;;;;;13.00;99.90;;;;;;5093798;28;19923;-62
2021/10/28 17:57:07;;;;;;;;;;;13.00;99.90;;;;;;5093779;28;19916;-62
2021/10/28 17:59:32;;;;;;;;;;;13.00;99.90;;;;;;5093659;28;19916;-62
2021/10/28 18:01:58;;;;;;;;;;;13.00;99.90;;;;;;5093636;28;19923;-62
2021/10/28 18:04:23;;;;;;;;;;;12.90;99.90;;;;;;5093564;28;19974;-62
2021/10/28 18:06:50;;;;;;;;;;;12.90;99.90;;;;;;5093662;28;20276;-62
2021/10/28 18:09:17;;;;;;;;;;;12.90;99.90;;;;;;5093425;28;19961;-62
2021/10/28 18:11:42;;;;;;;;;;;12.90;99.90;;;;;;5075685;28;19962;-62
2021/10/28 18:14:12;;;;;;;;;;;13.00;99.90;;;;;;5093471;28;19951;-62
2021/10/28 18:16:40;;;;;;;;;;;13.00;99.90;;;;;;5093433;28;19916;-62
2021/10/28 18:19:08;;;;;;;;;;;12.90;99.90;;;;;;5093332;28;20011;-62
2021/10/28 18:21:34;;;;;;;;;;;12.90;99.90;;;;;;5093458;28;19916;-62
2021/10/28 18:24:00;;;;;;;;;;;12.90;99.90;;;;;;5093069;28;20366;-62
2021/10/28 18:26:25;;;;;;;;;;;12.90;99.90;;;;;;5093083;28;19922;-62
2021/10/28 18:28:52;;;;;;;;;;;12.90;99.90;;;;;;5091933;28;19919;-62
2021/10/28 18:31:18;;;;;;;;;;;13.00;99.90;;;;;;5092986;28;19963;-62
2021/10/28 18:33:44;;;;;;;;;;;12.90;99.90;;;;;;5093167;28;19959;-62
2021/10/28 18:36:12;;;;;;;;;;;12.80;99.90;;;;;;5093426;28;19931;-62
2021/10/28 18:38:40;;;;;;;;;;;12.80;99.90;;;;;;5093018;28;19974;-62
2021/10/28 18:41:07;;;;;;;;;;;12.80;99.90;;;;;;5092762;28;19927;-62
2021/10/28 18:43:32;;;;;;;;;;;12.70;99.90;;;;;;5108573;28;20345;-62
2021/10/28 18:45:58;;;;;;;;;;;12.70;99.90;;;;;;5093195;28;19927;-61
2021/10/28 18:48:25;;;;;;;;;;;12.70;99.90;;;;;;5093162;28;20096;-63
2021/10/28 18:50:51;;;;;;;;;;;12.70;99.90;;;;;;5093314;28;19920;-62
2021/10/28 18:53:16;;;;;;;;;;;12.60;99.90;;;;;;5092868;28;19984;-62
2021/10/28 18:55:42;;;;;;;;;;;12.70;99.90;;;;;;5092625;28;19923;-62
2021/10/28 18:58:08;;;;;;;;;;;12.60;99.90;;;;;;5092744;28;19916;-62
2021/10/28 19:00:34;;;;;;;;;;;12.60;99.90;;;;;;5092690;28;20285;-62
2021/10/28 19:03:00;;;;;;;;;;;12.60;99.90;;;;;;5092739;28;20293;-62
2021/10/28 19:05:26;;;;;;;;;;;12.60;99.90;;;;;;5092534;28;19924;-62
2021/10/28 19:07:52;;;;;;;;;;;12.60;99.90;;;;;;5092600;28;19963;-62
2021/10/28 19:10:18;;;;;;;;;;;12.60;99.90;;;;;;5092471;28;19959;-62
2021/10/28 19:12:44;;;;;;;;;;;12.60;99.90;;;;;;5092438;28;19955;-62
2021/10/28 19:15:10;;;;;;;;;;;12.50;99.90;;;;;;5092632;28;20361;-62
2021/10/28 19:17:36;;;;;;;;;;;12.40;99.90;;;;;;5092559;28;20331;-62
2021/10/28 19:20:03;;;;;;;;;;;12.30;99.90;;;;;;5092488;28;20281;-62
2021/10/28 19:22:32;;;;;;;;;;;12.30;99.90;;;;;;5092209;28;20397;-63
2021/10/28 19:24:58;;;;;;;;;;;12.30;99.90;;;;;;5092240;28;19927;-62
2021/10/28 19:27:25;;;;;;;;;;;12.30;99.90;;;;;;5092501;28;19922;-62
2021/10/28 19:29:56;;;;;;;;;;;12.30;99.90;;;;;;5092467;28;19920;-62
2021/10/28 19:32:24;;;;;;;;;;;12.20;99.90;;;;;;5092479;28;19922;-62
2021/10/28 19:34:49;;;;;;;;;;;12.20;99.90;;;;;;5092353;28;19969;-62
2021/10/28 19:37:20;;;;;;;;;;;12.10;99.90;;;;;;5092192;28;19923;-62
2021/10/28 19:45:06;;;;;;;;;;;12.10;99.90;;;;;;5096411;28;20480;-62
2021/10/28 19:47:54;;;;;;;;;;;12.00;99.90;;;;;;5096391;28;19962;-62
2021/10/28 19:50:20;;;;;;;;;;;12.00;99.90;;;;;;5096374;28;19916;-62
2021/10/28 19:52:46;;;;;;;;;;;12.00;99.90;;;;;;5096394;28;19993;-62
2021/10/28 19:55:12;;;;;;;;;;;11.90;99.90;;;;;;5096196;28;19920;-62
2021/10/28 19:57:41;;;;;;;;;;;11.90;99.90;;;;;;5096176;28;19916;-62
2021/10/28 20:07:58;;;;;;;;;;;11.80;99.90;;;;;;5095990;28;19923;-62
2021/10/28 20:21:20;;;;;;;;;;;11.70;99.90;;;;;;5095532;28;19916;-62
2021/10/28 20:23:45;;;;;;;;;;;11.70;99.90;;;;;;5095690;28;19915;-62
2021/10/28 20:26:11;;;;;;;;;;;11.70;99.90;;;;;;5095689;28;20320;-62
2021/10/28 20:28:42;;;;;;;;;;;11.70;99.90;;;;;;5095649;28;19916;-62
2021/10/28 20:31:08;;;;;;;;;;;11.80;99.90;;;;;;5095522;28;19962;-62
2021/10/28 20:33:37;;;;;;;;;;;11.70;99.90;;;;;;5095480;28;19923;-62
2021/10/28 20:38:47;;;;;;;;;;;11.70;99.90;;;;;;5095506;28;19955;-62
2021/10/28 20:41:13;;;;;;;;;;;11.60;99.90;;;;;;5095080;28;20020;-62
2021/10/28 20:43:39;;;;;;;;;;;11.60;99.90;;;;;;5095125;28;20069;-62
2021/10/28 20:46:05;;;;;;;;;;;11.60;99.90;;;;;;5095066;28;19916;-62
2021/10/28 20:48:30;;;;;;;;;;;11.60;99.90;;;;;;5095080;28;19920;-62
2021/10/28 20:50:56;;;;;;;;;;;11.60;99.90;;;;;;5095410;28;20361;-62
2021/10/28 20:53:22;;;;;;;;;;;11.60;99.90;;;;;;5094278;28;19920;-62
2021/10/28 20:55:48;;;;;;;;;;;11.60;99.90;;;;;;5095224;28;20001;-62
2021/10/28 20:58:14;;;;;;;;;;;11.60;99.90;;;;;;5095014;28;19994;-63
2021/10/28 21:00:40;;;;;;;;;;;11.60;99.90;;;;;;5094821;28;19927;-62
2021/10/28 21:03:06;;;;;;;;;;;11.60;99.90;;;;;;5095076;28;19915;-62
2021/10/28 21:05:32;;;;;;;;;;;11.60;99.90;;;;;;5094830;28;19920;-63
2021/10/28 21:07:57;;;;;;;;;;;11.60;99.90;;;;;;5090530;28;20353;-63
2021/10/28 21:10:25;;;;;;;;;;;11.60;99.90;;;;;;5093260;28;19916;-63
2021/10/28 21:12:51;;;;;;;;;;;11.60;99.90;;;;;;5076301;28;20012;-62
2021/10/28 21:15:16;;;;;;;;;;;11.70;99.90;;;;;;5092627;28;19922;-63
2021/10/28 21:17:43;;;;;;;;;;;11.60;99.90;;;;;;5093740;28;20003;-62
2021/10/28 21:20:09;;;;;;;;;;;11.60;99.90;;;;;;5094765;28;19961;-63
2021/10/28 21:22:36;;;;;;;;;;;11.60;99.90;;;;;;5094692;28;19969;-62
2021/10/28 21:25:02;;;;;;;;;;;11.50;99.90;;;;;;5094470;28;19920;-63
2021/10/28 21:27:28;;;;;;;;;;;11.50;99.90;;;;;;5094491;28;19951;-63
2021/10/28 21:29:53;;;;;;;;;;;11.50;99.90;;;;;;5094363;28;19970;-63
2021/10/28 21:32:19;;;;;;;;;;;11.50;99.90;;;;;;5094558;28;20330;-62
2021/10/28 21:34:45;;;;;;;;;;;11.40;99.90;;;;;;5094446;28;20380;-63
2021/10/28 21:37:13;;;;;;;;;;;11.40;99.90;;;;;;5094642;28;19920;-63
2021/10/28 21:39:40;;;;;;;;;;;11.40;99.90;;;;;;5094033;28;19974;-62
2021/10/28 21:42:06;;;;;;;;;;;11.40;99.90;;;;;;5094229;28;19916;-62
2021/10/28 21:44:32;;;;;;;;;;;11.40;99.90;;;;;;5093863;28;19920;-63
2021/10/28 21:46:57;;;;;;;;;;;11.30;99.90;;;;;;5109090;28;19969;-63
2021/10/28 21:49:23;;;;;;;;;;;11.40;99.90;;;;;;5094211;28;20006;-63
2021/10/28 21:51:52;;;;;;;;;;;11.40;99.90;;;;;;5094330;28;20038;-62
2021/10/28 21:54:45;;;;;;;;;;;11.30;99.90;;;;;;5093872;28;20396;-63
2021/10/28 21:57:13;;;;;;;;;;;11.30;99.90;;;;;;5093576;28;19920;-63
2021/10/28 22:02:52;;;;;;;;;;;11.30;99.90;;;;;;5093704;28;19963;-63
2021/10/28 22:24:36;;;;;;;;;;;11.00;99.90;;;;;;5093416;28;20011;-63
2021/10/28 22:27:01;;;;;;;;;;;11.00;99.90;;;;;;5093216;28;20388;-63
2021/10/28 22:29:27;;;;;;;;;;;11.00;99.90;;;;;;5093230;28;19919;-62
2021/10/28 22:31:52;;;;;;;;;;;10.90;99.90;;;;;;5093108;28;20362;-62
2021/10/28 22:34:18;;;;;;;;;;;10.90;99.90;;;;;;5093123;28;19915;-63
2021/10/28 22:36:48;;;;;;;;;;;10.90;99.90;;;;;;5093040;28;19916;-62
2021/10/28 22:39:19;;;;;;;;;;;10.80;99.90;;;;;;5093159;28;19974;-63
2021/10/28 22:41:44;;;;;;;;;;;10.80;99.90;;;;;;5093159;28;19961;-62
2021/10/28 22:44:10;;;;;;;;;;;10.80;99.90;;;;;;5092938;28;19924;-63
2021/10/28 22:46:35;;;;;;;;;;;10.70;99.90;;;;;;5092957;28;20400;-62
2021/10/28 22:49:01;;;;;;;;;;;10.80;99.90;;;;;;5092806;28;19920;-62
2021/10/28 22:51:27;;;;;;;;;;;10.70;99.90;;;;;;5092761;28;20323;-62
2021/10/28 22:53:53;;;;;;;;;;;10.70;99.90;;;;;;5093044;28;19916;-62
2021/10/28 22:56:19;;;;;;;;;;;10.80;99.90;;;;;;5091698;28;20006;-62
2021/10/28 22:58:52;;;;;;;;;;;10.70;99.90;;;;;;5092894;28;19916;-62
2021/10/28 23:01:29;;;;;;;;;;;10.70;99.90;;;;;;5092628;28;19915;-63
2021/10/28 23:09:59;;;;;;;;;;;10.70;99.90;;;;;;5092604;28;19916;-63
2021/10/28 23:14:22;;;;;;;;;;;10.70;99.90;;;;;;5092329;28;20373;-62
2021/10/28 23:22:00;;;;;;;;;;;10.60;99.90;;;;;;5092651;28;19916;-62
2021/10/28 23:24:26;;;;;;;;;;;10.60;99.90;;;;;;5092274;28;19920;-63
2021/10/28 23:26:51;;;;;;;;;;;10.60;99.90;;;;;;5092343;28;19939;-62
2021/10/28 23:29:17;;;;;;;;;;;10.60;99.90;;;;;;5092151;28;19962;-62
2021/10/28 23:31:42;;;;;;;;;;;10.50;99.90;;;;;;5092418;28;19982;-62
2021/10/28 23:34:10;;;;;;;;;;;10.50;99.90;;;;;;5092396;28;19999;-63
2021/10/28 23:36:35;;;;;;;;;;;10.50;99.90;;;;;;5092173;28;19939;-62
2021/10/28 23:39:01;;;;;;;;;;;10.50;99.90;;;;;;5092124;28;20366;-62
2021/10/28 23:41:26;;;;;;;;;;;10.50;99.90;;;;;;5092165;28;20347;-62
2021/10/28 23:43:52;;;;;;;;;;;10.50;99.90;;;;;;5092294;28;20420;-62
2021/10/28 23:46:17;;;;;;;;;;;10.50;99.90;;;;;;5092286;28;20404;-62
2021/10/28 23:48:43;;;;;;;;;;;10.50;99.90;;;;;;5092425;28;19920;-62
2021/10/28 23:51:08;;;;;;;;;;;10.40;99.90;;;;;;5092200;28;20422;-62
2021/10/28 23:53:34;;;;;;;;;;;10.50;99.90;;;;;;5092063;28;20285;-62
2021/10/28 23:56:00;;;;;;;;;;;10.40;99.90;;;;;;5091966;28;19920;-62
2021/10/28 23:58:25;;;;;;;;;;;10.40;99.90;;;;;;5091965;28;19961;-63
